Weather at Kildare Aerodrome

Public forecast

Using degrees Celsius for public forecast. Weather courtesy of forecast.io.

Closest aviation weather report (METAR) to Kildare Aerodrome

Closest report is Casement Air Base, 20.4 nm (37.8 km) NE.

2024/05/20 19:00 (retrieved 58 minutes ago)

EIME 201900Z 07007KT 030V100 9999 FEW025 BKN080 15/11 Q1013

Closest aviation forecast (TAF) to Kildare Aerodrome

Closest forecast is Dublin Airport, 30.6 nm (56.6 km) NE.

2024/05/20 18:11 (retrieved 2 hours ago)

TAF EIDW 201700Z 2018/2118 08010KT 9999 FEW018 PROB40 TEMPO 2018/2020 FEW020CB BECMG 2022/2024 VRB03KT PROB30 TEMPO 2100/2109 3000 -SHRA BR FEW020CB TEMPO 2109/2114 -SHRA FEW020CB PROB40 TEMPO 2109/2114 4000 SHRA BKN012 SCT020CB BECMG 2112/2114 11007KT